Time;durP1;ratioP1;P1;durP2;ratioP2;P2;SDS_P1;SDS_P2;PMS_P1;PMS_P2;Temp;Humidity;BMP_temperature;BMP_pressure;BME280_temperature;BME280_humidity;BME280_pressure;Samples;Min_cycle;Max_cycle;Signal;HPM_P1;HPM_P2
2022/03/03 00:00:09;;;;;;;84.67;39.03;;;;;;;-4.73;67.60;101194.28;1659750;86;21070;-75
2022/03/03 00:02:44;;;;;;;73.60;34.07;;;;;;;-4.73;67.73;101193.00;1659396;86;21481;-75
2022/03/03 00:05:12;;;;;;;76.80;37.43;;;;;;;-4.73;67.79;101190.03;1659756;86;21038;-75
2022/03/03 00:07:40;;;;;;;88.57;37.10;;;;;;;-4.75;67.75;101191.66;1659370;86;21177;-75
2022/03/03 00:10:09;;;;;;;76.47;35.30;;;;;;;-4.77;67.72;101180.89;1659647;86;21550;-75
2022/03/03 00:12:37;;;;;;;68.97;33.13;;;;;;;-4.79;67.79;101183.41;1659478;85;21535;-75
2022/03/03 00:15:05;;;;;;;62.30;31.33;;;;;;;-4.79;67.95;101180.86;1659650;86;21019;-76
2022/03/03 00:17:32;;;;;;;65.67;32.93;;;;;;;-4.78;68.03;101180.03;1659512;86;21557;-75
2022/03/03 00:20:00;;;;;;;61.97;30.40;;;;;;;-4.79;68.02;101179.58;1659836;86;21122;-75
2022/03/03 00:22:27;;;;;;;65.13;30.50;;;;;;;-4.78;68.01;101185.56;1659469;86;21022;-75
2022/03/03 00:24:54;;;;;;;57.17;29.50;;;;;;;-4.81;67.97;101179.92;1659989;86;21000;-75
2022/03/03 00:27:21;;;;;;;59.70;30.07;;;;;;;-4.80;68.04;101184.21;1659542;86;21465;-75
2022/03/03 00:29:48;;;;;;;54.03;27.43;;;;;;;-4.81;68.05;101183.75;1659706;86;21027;-75
2022/03/03 00:32:16;;;;;;;52.87;28.50;;;;;;;-4.83;67.98;101181.54;1659503;86;21111;-75
2022/03/03 00:34:43;;;;;;;58.10;28.90;;;;;;;-4.86;68.00;101183.98;1659722;86;21015;-75
2022/03/03 00:37:10;;;;;;;56.50;28.37;;;;;;;-4.87;68.09;101178.42;1659612;86;21446;-75
2022/03/03 00:39:37;;;;;;;60.57;29.43;;;;;;;-4.87;68.11;101183.53;1659874;86;21075;-75
2022/03/03 00:42:05;;;;;;;61.53;28.90;;;;;;;-4.87;68.17;101186.50;1666926;85;20992;-75
2022/03/03 00:44:32;;;;;;;55.63;27.87;;;;;;;-4.86;68.28;101189.09;1668719;86;21126;-75
2022/03/03 00:46:59;;;;;;;55.80;26.97;;;;;;;-4.87;68.27;101189.92;1668720;86;21034;-75
2022/03/03 00:49:26;;;;;;;55.03;26.57;;;;;;;-4.88;68.35;101187.30;1668644;86;21481;-75
2022/03/03 00:51:53;;;;;;;49.33;25.03;;;;;;;-4.87;68.41;101186.50;1668671;86;21082;-75
2022/03/03 00:54:20;;;;;;;49.77;23.97;;;;;;;-4.89;68.33;101180.45;1668965;86;21015;-75
2022/03/03 00:56:47;;;;;;;48.53;24.97;;;;;;;-4.91;68.30;101173.98;1668845;86;21766;-75
2022/03/03 00:59:14;;;;;;;47.43;24.17;;;;;;;-4.91;68.40;101171.42;1668939;86;20999;-75
2022/03/03 01:01:41;;;;;;;47.10;23.30;;;;;;;-4.90;68.62;101168.45;1668701;86;21107;-75
2022/03/03 01:04:09;;;;;;;52.37;25.27;;;;;;;-4.90;68.82;101160.41;1669026;86;21562;-75
2022/03/03 01:06:36;;;;;;;50.60;24.00;;;;;;;-4.84;69.05;101157.20;1668792;86;21234;-75
2022/03/03 01:09:03;;;;;;;50.37;24.77;;;;;;;-4.83;68.87;101154.69;1668951;86;21098;-75
2022/03/03 01:11:30;;;;;;;55.43;25.40;;;;;;;-4.83;68.82;101161.08;1668615;86;21034;-75
2022/03/03 01:13:57;;;;;;;55.40;26.30;;;;;;;-4.85;68.72;101160.18;1668879;86;21051;-75
2022/03/03 01:16:25;;;;;;;54.90;26.30;;;;;;;-4.90;68.55;101154.02;1668773;86;21054;-75
2022/03/03 01:18:52;;;;;;;53.00;26.47;;;;;;;-4.91;68.60;101154.81;1668920;86;21015;-76
2022/03/03 01:21:19;;;;;;;58.43;28.57;;;;;;;-4.93;68.56;101146.23;1668649;86;21307;-75
2022/03/03 01:23:46;;;;;;;56.73;29.23;;;;;;;-4.95;68.62;101141.05;1668837;86;20995;-75
2022/03/03 01:26:13;;;;;;;55.20;28.53;;;;;;;-4.95;68.66;101137.21;1668747;86;21086;-75
2022/03/03 01:28:40;;;;;;;58.87;27.60;;;;;;;-4.97;68.66;101132.44;1668628;86;21082;-75
2022/03/03 01:31:07;;;;;;;62.37;27.73;;;;;;;-4.97;68.72;101124.77;1668664;86;21527;-75
2022/03/03 01:33:34;;;;;;;57.33;27.80;;;;;;;-4.97;68.76;101132.85;1668773;86;21122;-75
2022/03/03 01:36:02;;;;;;;50.37;24.50;;;;;;;-5.00;68.71;101131.05;1668691;86;21488;-75
2022/03/03 01:38:29;;;;;;;57.20;25.40;;;;;;;-5.02;68.67;101122.44;1668754;86;21086;-75
2022/03/03 01:40:56;;;;;;;45.90;24.60;;;;;;;-5.04;68.71;101117.70;1666287;85;21007;-75
2022/03/03 01:43:23;;;;;;;52.73;24.67;;;;;;;-5.06;68.82;101112.93;1659363;86;21071;-75
2022/03/03 01:45:50;;;;;;;48.90;23.53;;;;;;;-5.05;68.85;101109.55;1659524;86;21244;-76
2022/03/03 01:48:17;;;;;;;46.23;24.17;;;;;;;-5.06;68.80;101116.77;1659187;86;21026;-75
2022/03/03 01:50:45;;;;;;;54.80;25.53;;;;;;;-5.07;68.89;101123.98;1659258;86;21038;-75
2022/03/03 01:53:12;;;;;;;51.00;24.33;;;;;;;-5.06;68.93;101119.32;1659346;86;21050;-75
2022/03/03 01:55:39;;;;;;;47.03;24.03;;;;;;;-5.07;68.88;101112.48;1659620;86;21036;-76
2022/03/03 01:58:06;;;;;;;50.10;24.40;;;;;;;-5.11;68.75;101108.05;1659305;86;21952;-75
2022/03/03 02:00:34;;;;;;;53.07;25.40;;;;;;;-5.14;68.76;101107.07;1659349;86;21472;-76
2022/03/03 02:03:01;;;;;;;57.63;28.13;;;;;;;-5.16;68.87;101110.42;1659207;86;21047;-75
2022/03/03 02:05:30;;;;;;;58.53;26.93;;;;;;;-5.13;69.31;101105.83;1659451;86;21035;-76
2022/03/03 02:07:57;;;;;;;55.17;25.77;;;;;;;-5.13;69.03;101108.80;1659473;86;21039;-75
2022/03/03 02:10:25;;;;;;;57.43;27.40;;;;;;;-5.17;69.01;101106.13;1659313;86;21508;-76
2022/03/03 02:12:52;;;;;;;65.50;28.87;;;;;;;-5.17;69.05;101101.43;1659381;86;21023;-76
2022/03/03 02:15:21;;;;;;;60.77;28.90;;;;;;;-5.19;69.05;101101.36;1659529;86;21015;-75
2022/03/03 02:17:48;;;;;;;60.87;28.73;;;;;;;-5.21;69.15;101097.90;1659214;86;21042;-75
2022/03/03 02:20:27;;;;;;;60.77;27.77;;;;;;;-5.20;69.12;101099.62;1659482;86;21034;-75
2022/03/03 02:22:57;;;;;;;54.27;25.30;;;;;;;-5.20;69.25;101096.21;1659201;86;21172;-75
2022/03/03 02:25:26;;;;;;;58.13;27.63;;;;;;;-5.21;69.25;101092.79;1659414;86;20987;-75
2022/03/03 02:27:53;;;;;;;57.90;26.97;;;;;;;-5.23;69.40;101094.41;1659216;86;20999;-75
2022/03/03 02:30:21;;;;;;;56.03;27.43;;;;;;;-5.21;69.48;101090.23;1683180;80;21107;-75
2022/03/03 02:32:48;;;;;;;64.90;28.97;;;;;;;-5.19;69.55;101093.69;1686325;85;21029;-75
2022/03/03 02:35:16;;;;;;;59.00;28.87;;;;;;;-5.17;69.69;101079.30;1686384;84;22209;-75
2022/03/03 02:37:45;;;;;;;61.43;28.27;;;;;;;-5.12;69.84;101074.37;1686265;85;21004;-75
2022/03/03 02:40:20;;;;;;;65.10;30.12;;;;;;;-5.11;69.87;101070.98;1686536;85;21474;-75
2022/03/03 02:42:47;;;;;;;61.33;28.73;;;;;;;-5.07;70.03;101071.96;1686293;84;21012;-75
2022/03/03 02:45:14;;;;;;;62.67;29.90;;;;;;;-5.00;70.18;101075.22;1686320;85;21040;-75
2022/03/03 02:47:49;;;;;;;64.63;30.70;;;;;;;-4.95;70.22;101072.02;1686404;85;21122;-75
2022/03/03 02:50:16;;;;;;;65.33;31.10;;;;;;;-4.91;70.22;101073.40;1685322;84;22019;-75
2022/03/03 02:52:46;;;;;;;68.87;30.90;;;;;;;-4.89;70.25;101070.09;1686321;85;21049;-75
2022/03/03 02:55:14;;;;;;;56.97;28.23;;;;;;;-4.86;70.31;101068.05;1686666;84;21024;-75
2022/03/03 02:57:53;;;;;;;61.27;28.93;;;;;;;-4.82;70.44;101059.66;1686434;84;21012;-75
2022/03/03 03:00:23;;;;;;;65.10;29.33;;;;;;;-4.77;70.48;101061.56;1685475;85;22037;-75
2022/03/03 03:02:50;;;;;;;63.63;29.10;;;;;;;-4.69;70.58;101066.95;1684869;85;21084;-75
2022/03/03 03:05:17;;;;;;;59.23;29.00;;;;;;;-4.64;70.70;101060.32;1685091;85;21024;-75
2022/03/03 03:07:45;;;;;;;60.70;29.07;;;;;;;-4.59;70.71;101060.08;1684901;85;21071;-75
2022/03/03 03:10:12;;;;;;;61.30;28.90;;;;;;;-4.54;70.85;101058.55;1684893;85;21087;-75
2022/03/03 03:12:39;;;;;;;61.47;29.20;;;;;;;-4.46;70.97;101057.93;1684879;85;21295;-75
2022/03/03 03:15:08;;;;;;;65.67;30.40;;;;;;;-4.40;71.01;101062.00;1684967;85;21079;-75
2022/03/03 03:17:35;;;;;;;65.37;29.73;;;;;;;-4.36;71.02;101056.16;1684939;85;21017;-75
2022/03/03 03:20:06;;;;;;;65.60;31.50;;;;;;;-4.33;71.01;101052.00;1685143;85;21473;-75
2022/03/03 03:22:35;;;;;;;67.47;31.73;;;;;;;-4.30;71.01;101044.42;1684818;85;21000;-75
2022/03/03 03:25:09;;;;;;;85.30;36.93;;;;;;;-4.26;71.08;101047.56;1684968;85;21139;-75
2022/03/03 03:27:38;;;;;;;85.87;36.50;;;;;;;-4.21;71.18;101040.05;1684708;85;21087;-75
2022/03/03 03:30:08;;;;;;;90.07;36.00;;;;;;;-4.12;71.28;101033.94;1685410;85;22111;-75
2022/03/03 03:32:36;;;;;;;72.90;33.08;;;;;;;-4.04;71.23;101036.75;1687160;84;21024;-75
2022/03/03 03:35:05;;;;;;;74.30;33.53;;;;;;;-4.00;71.17;101032.17;1687148;85;21043;-75
2022/03/03 03:37:32;;;;;;;71.80;33.03;;;;;;;-3.95;71.18;101025.94;1687037;85;21977;-75
2022/03/03 03:39:59;;;;;;;69.43;33.43;;;;;;;-3.94;71.09;101025.09;1687020;85;21016;-75
2022/03/03 03:42:26;;;;;;;68.17;32.77;;;;;;;-3.91;71.14;101022.22;1686983;85;21083;-75
2022/03/03 03:44:53;;;;;;;63.60;30.97;;;;;;;-3.89;71.14;101018.44;1687123;84;21063;-75
2022/03/03 03:47:20;;;;;;;66.30;32.20;;;;;;;-3.85;71.19;101022.44;1688182;85;21024;-75
2022/03/03 03:49:47;;;;;;;65.43;32.83;;;;;;;-3.82;71.19;101016.13;1688574;84;21959;-75
2022/03/03 03:52:15;;;;;;;66.67;32.00;;;;;;;-3.78;71.18;101011.09;1688597;85;20989;-75
2022/03/03 03:54:42;;;;;;;65.97;32.10;;;;;;;-3.75;71.34;101013.74;1688746;85;21076;-75
2022/03/03 03:57:09;;;;;;;72.20;33.97;;;;;;;-3.71;71.22;101017.73;1688754;85;21006;-75
2022/03/03 03:59:36;;;;;;;64.67;31.00;;;;;;;-3.68;71.17;101010.56;1688873;85;21076;-75
2022/03/03 04:02:04;;;;;;;61.87;30.77;;;;;;;-3.65;71.22;101006.39;1688749;85;21074;-75
2022/03/03 04:04:31;;;;;;;66.87;31.90;;;;;;;-3.62;71.14;101001.77;1688910;84;21040;-75
2022/03/03 04:06:58;;;;;;;78.40;33.00;;;;;;;-3.58;71.22;101003.59;1688726;85;21028;-75
2022/03/03 04:09:25;;;;;;;64.40;32.47;;;;;;;-3.55;71.24;100991.28;1688965;85;20985;-75
2022/03/03 04:11:52;;;;;;;64.57;32.27;;;;;;;-3.54;71.22;100982.80;1688636;85;21028;-75
2022/03/03 04:14:19;;;;;;;69.20;33.07;;;;;;;-3.50;71.33;100989.73;1688995;85;21096;-75
2022/03/03 04:16:46;;;;;;;65.67;31.33;;;;;;;-3.44;71.46;100992.46;1688654;85;21521;-75
2022/03/03 04:19:14;;;;;;;65.70;32.17;;;;;;;-3.38;71.32;101001.61;1688834;85;21017;-75
2022/03/03 04:21:42;;;;;;;62.67;30.93;;;;;;;-3.33;71.27;100996.20;1688818;84;21025;-75
2022/03/03 04:24:10;;;;;;;72.33;32.37;;;;;;;-3.34;71.27;100989.77;1689014;85;21279;-75
2022/03/03 04:26:38;;;;;;;63.30;31.30;;;;;;;-3.32;71.32;100985.56;1688625;85;21119;-75
2022/03/03 04:29:05;;;;;;;68.83;32.60;;;;;;;-3.30;71.38;100985.17;1688665;85;21079;-75
2022/03/03 04:31:32;;;;;;;65.30;32.50;;;;;;;-3.28;71.41;100986.95;1692602;84;21015;-75
2022/03/03 04:33:59;;;;;;;67.80;34.30;;;;;;;-3.27;71.40;100985.26;1694120;83;21044;-75
2022/03/03 04:36:26;;;;;;;66.97;33.73;;;;;;;-3.23;71.46;100987.10;1694004;83;21023;-75
2022/03/03 04:38:53;;;;;;;68.37;34.13;;;;;;;-3.22;71.42;100986.27;1693856;84;21205;-75
2022/03/03 04:41:20;;;;;;;72.23;34.90;;;;;;;-3.17;71.50;100980.86;1693914;84;21036;-75
2022/03/03 04:43:48;;;;;;;66.00;32.20;;;;;;;-3.15;71.45;100981.36;1693854;84;21028;-75
2022/03/03 04:46:15;;;;;;;59.13;32.13;;;;;;;-3.10;71.42;100980.59;1685791;84;21009;-75
2022/03/03 04:48:42;;;;;;;65.67;31.90;;;;;;;-3.09;71.40;100977.23;1671214;85;21076;-76
2022/03/03 04:51:09;;;;;;;64.17;31.83;;;;;;;-3.08;71.44;100975.97;1671189;85;21932;-75
2022/03/03 04:53:36;;;;;;;70.97;33.50;;;;;;;-3.06;71.49;100973.05;1671268;85;21553;-75
2022/03/03 04:56:04;;;;;;;69.40;32.43;;;;;;;-3.04;71.58;100976.95;1671168;85;21541;-76
2022/03/03 04:58:31;;;;;;;68.77;33.90;;;;;;;-3.03;71.62;100978.25;1671430;85;20993;-75
2022/03/03 05:00:58;;;;;;;74.10;35.07;;;;;;;-3.00;71.74;100977.05;1671327;85;21036;-75
2022/03/03 05:03:25;;;;;;;70.87;33.77;;;;;;;-2.97;71.72;100975.84;1671334;85;21134;-75
2022/03/03 05:05:52;;;;;;;66.63;32.70;;;;;;;-2.95;71.69;100968.21;1671176;85;21028;-75
2022/03/03 05:08:20;;;;;;;68.57;33.60;;;;;;;-2.94;71.73;100960.95;1671397;85;21061;-75
2022/03/03 05:10:47;;;;;;;61.97;32.10;;;;;;;-2.92;71.77;100967.01;1671318;85;21485;-75
2022/03/03 05:13:14;;;;;;;74.43;36.00;;;;;;;-2.90;71.73;100960.65;1671445;85;21033;-75
2022/03/03 05:15:41;;;;;;;70.63;36.63;;;;;;;-2.89;71.70;100956.83;1671222;85;21209;-75
2022/03/03 05:18:08;;;;;;;67.27;33.50;;;;;;;-2.88;71.80;100952.17;1671337;85;20994;-75
2022/03/03 05:20:36;;;;;;;71.60;34.93;;;;;;;-2.86;71.87;100954.76;1671157;85;21076;-75
2022/03/03 05:23:03;;;;;;;68.63;32.97;;;;;;;-2.83;71.93;100948.00;1671520;85;21017;-75
2022/03/03 05:25:30;;;;;;;73.13;36.03;;;;;;;-2.81;71.92;100951.48;1671240;85;21521;-75
2022/03/03 05:28:00;;;;;;;70.63;36.13;;;;;;;-2.79;71.98;100956.25;1671499;85;21553;-75
2022/03/03 05:30:27;;;;;;;67.82;34.53;;;;;;;-2.77;71.98;100951.14;1667216;85;21079;-76
2022/03/03 05:32:54;;;;;;;95.77;50.00;;;;;;;-2.77;71.98;100946.01;1649657;87;21514;-76
2022/03/03 05:35:21;;;;;;;96.03;48.83;;;;;;;-2.77;72.07;100946.01;1605839;89;21052;-75
2022/03/03 05:37:49;;;;;;;105.33;53.30;;;;;;;-2.76;72.07;100949.91;1633153;87;21100;-75
2022/03/03 05:40:16;;;;;;;134.50;72.37;;;;;;;-2.75;71.97;100945.22;1633245;87;21148;-75
2022/03/03 05:42:44;;;;;;;108.43;55.53;;;;;;;-2.71;72.03;100939.77;1649589;87;21028;-75
2022/03/03 05:45:12;;;;;;;106.13;54.37;;;;;;;-2.68;72.05;100941.13;1605733;89;21039;-76
2022/03/03 05:47:40;;;;;;;98.87;51.73;;;;;;;-2.65;72.10;100940.34;1633194;87;21068;-76
2022/03/03 05:50:09;;;;;;;97.47;48.20;;;;;;;-2.61;72.12;100943.42;1633210;87;38426;-75
2022/03/03 05:52:37;;;;;;;87.43;45.47;;;;;;;-2.58;72.04;100930.67;1633313;87;21214;-75
2022/03/03 05:55:05;;;;;;;82.70;41.37;;;;;;;-2.56;72.03;100932.86;1633252;87;21525;-75
2022/03/03 05:57:42;;;;;;;78.87;40.27;;;;;;;-2.58;71.92;100927.68;1633348;87;21552;-79
2022/03/03 06:00:13;;;;;;;89.37;40.87;;;;;;;-2.58;71.97;100934.52;1633171;87;21014;-75
2022/03/03 06:02:51;;;;;;;85.67;40.73;;;;;;;-2.56;72.13;100941.42;1656739;85;21059;-76
2022/03/03 06:05:27;;;;;;;88.57;45.23;;;;;;;-2.55;72.06;100934.59;1668673;84;21190;-76
2022/03/03 06:08:04;;;;;;;77.40;40.97;;;;;;;-2.55;72.13;100930.73;1672400;85;21084;-75
2022/03/03 06:10:35;;;;;;;81.03;42.20;;;;;;;-2.54;72.13;100930.80;1664896;86;21514;-75
2022/03/03 06:13:12;;;;;;;84.77;41.58;;;;;;;-2.49;72.21;100927.92;1671258;85;21048;-75
2022/03/03 06:15:42;;;;;;;86.07;41.10;;;;;;;-2.45;72.25;100933.13;1672058;85;21298;-76
2022/03/03 06:18:11;;;;;;;92.17;43.55;;;;;;;-2.42;72.20;100933.20;1687524;85;21035;-75
2022/03/03 06:20:40;;;;;;;99.73;47.17;;;;;;;-2.40;72.33;100934.11;1664877;86;21085;-75
2022/03/03 06:23:08;;;;;;;112.60;56.77;;;;;;;-2.39;72.27;100932.85;1691555;84;20993;-75
2022/03/03 06:25:36;;;;;;;117.27;59.30;;;;;;;-2.36;72.34;100926.50;1664937;86;21018;-75
2022/03/03 06:28:05;;;;;;;106.23;55.70;;;;;;;-2.33;72.29;100930.84;1672707;85;21492;-75
2022/03/03 06:30:32;;;;;;;98.40;50.37;;;;;;;-2.31;72.30;100935.19;1689528;83;21150;-75
2022/03/03 06:32:59;;;;;;;93.93;46.27;;;;;;;-2.27;72.29;100937.02;1722817;83;21031;-75
2022/03/03 06:35:26;;;;;;;88.77;43.27;;;;;;;-2.22;72.35;100938.81;1718505;83;21079;-74
2022/03/03 06:37:54;;;;;;;90.67;43.60;;;;;;;-2.18;72.37;100938.92;1722872;83;21452;-75
2022/03/03 06:40:21;;;;;;;82.60;40.67;;;;;;;-2.12;72.41;100945.48;1714114;83;21052;-75
2022/03/03 06:42:48;;;;;;;133.97;54.50;;;;;;;-2.06;72.48;100943.47;1693984;84;21099;-75
2022/03/03 06:45:18;;;;;;;129.87;53.57;;;;;;;-1.98;72.64;100944.94;1694042;84;21013;-74
2022/03/03 06:47:46;;;;;;;94.70;45.17;;;;;;;-1.93;72.63;100944.63;1693886;84;21454;-75
2022/03/03 06:50:13;;;;;;;95.50;46.87;;;;;;;-1.90;72.61;100941.70;1694203;83;21502;-75
2022/03/03 06:52:40;;;;;;;89.53;45.40;;;;;;;-1.86;72.71;100947.38;1697993;83;21087;-75
2022/03/03 06:55:10;;;;;;;90.13;42.60;;;;;;;-1.81;72.70;100944.89;1693770;84;21137;-75
2022/03/03 06:57:40;;;;;;;82.92;41.75;;;;;;;-1.75;72.77;100950.58;1694234;83;21008;-75
2022/03/03 07:00:09;;;;;;;91.27;45.30;;;;;;;-1.69;72.68;100947.74;1694115;84;21520;-75
2022/03/03 07:02:38;;;;;;;110.20;54.13;;;;;;;-1.66;72.67;100941.38;1693896;84;21039;-75
2022/03/03 07:05:07;;;;;;;101.97;50.15;;;;;;;-1.61;72.58;100942.73;1694081;84;21043;-75
2022/03/03 07:07:35;;;;;;;119.30;56.67;;;;;;;-1.58;72.60;100937.27;1693932;84;21114;-76
2022/03/03 07:10:03;;;;;;;118.10;60.60;;;;;;;-1.54;72.67;100946.33;1697491;83;21032;-75
2022/03/03 07:12:33;;;;;;;130.50;66.00;;;;;;;-1.48;72.71;100943.88;1692520;84;21012;-75
2022/03/03 07:15:01;;;;;;;108.13;55.57;;;;;;;-1.45;72.56;100949.08;1692273;84;21476;-77
2022/03/03 07:17:50;;;;;;;106.03;52.57;;;;;;;-1.43;72.57;100942.27;1692458;84;21709;-77
2022/03/03 07:20:37;;;;;;;158.47;67.33;;;;;;;-1.40;72.59;100941.05;1692170;84;21157;-81
2022/03/03 07:23:24;;;;;;;131.37;56.60;;;;;;;-1.37;72.64;100941.97;1692307;84;21017;-77
2022/03/03 07:25:54;;;;;;;116.67;52.47;;;;;;;-1.30;72.86;100937.83;1692384;84;21008;-77
2022/03/03 07:28:22;;;;;;;95.03;46.83;;;;;;;-1.24;72.99;100948.23;1692727;84;21059;-79
2022/03/03 07:30:51;;;;;;;90.63;43.13;;;;;;;-1.15;73.09;100950.11;1690429;84;21067;-77
2022/03/03 07:33:36;;;;;;;136.50;60.93;;;;;;;-1.07;73.22;100946.41;1632496;87;21819;-78
2022/03/03 07:36:05;;;;;;;105.00;50.20;;;;;;;-1.00;73.27;100946.56;1688224;84;21494;-78
2022/03/03 07:38:36;;;;;;;113.77;53.43;;;;;;;-0.92;73.30;100943.68;1700736;84;21040;-79
2022/03/03 07:41:04;;;;;;;103.13;51.97;;;;;;;-0.85;73.27;100944.68;1700804;84;21009;-83
2022/03/03 07:43:31;;;;;;;102.70;50.73;;;;;;;-0.78;73.26;100950.37;1694982;84;21596;-79
2022/03/03 07:45:58;;;;;;;92.53;48.90;;;;;;;-0.68;73.32;100953.56;1682796;84;21094;-78
2022/03/03 07:48:25;;;;;;;83.83;43.43;;;;;;;-0.58;73.25;100962.72;1680527;84;21052;-79
2022/03/03 07:50:53;;;;;;;88.37;42.23;;;;;;;-0.49;73.29;100957.75;1672561;85;21041;-79
2022/03/03 07:53:20;;;;;;;79.20;39.67;;;;;;;-0.40;73.28;100957.89;1672747;85;21037;-79
2022/03/03 07:55:56;;;;;;;77.47;37.90;;;;;;;-0.30;73.21;100966.23;1672624;85;21363;-78
2022/03/03 07:58:24;;;;;;;64.50;35.30;;;;;;;-0.20;73.16;100957.34;1671295;85;21136;-78
2022/03/03 08:00:53;;;;;;;71.40;34.50;;;;;;;-0.10;73.14;100960.52;1672263;85;20998;-77
2022/03/03 08:03:22;;;;;;;72.07;35.00;;;;;;;0.01;72.47;100959.41;1672674;85;21025;-78
2022/03/03 08:05:55;;;;;;;53.77;29.73;;;;;;;0.12;71.96;100954.84;1672610;85;21040;-80
2022/03/03 08:08:29;;;;;;;69.67;35.03;;;;;;;0.26;71.48;100955.47;1672911;85;21196;-90
2022/03/03 08:11:06;;;;;;;53.17;29.53;;;;;;;0.39;71.01;100949.20;1672442;85;21197;-89
2022/03/03 08:13:35;;;;;;;59.57;31.10;;;;;;;0.52;70.42;100949.36;1680844;85;21008;-81
2022/03/03 08:16:03;;;;;;;55.03;29.17;;;;;;;0.64;70.05;100949.09;1700712;84;21032;-78
2022/03/03 08:18:35;;;;;;;54.20;28.23;;;;;;;0.75;69.59;100950.92;1701015;84;21069;-79
2022/03/03 08:21:04;;;;;;;51.73;29.73;;;;;;;0.85;69.19;100943.73;1700877;84;22136;-81
2022/03/03 08:23:31;;;;;;;52.43;31.67;;;;;;;0.94;68.84;100941.25;1683466;84;21107;-85
2022/03/03 08:26:01;;;;;;;59.63;34.97;;;;;;;1.03;68.65;100938.78;1682655;84;21072;-80
2022/03/03 08:28:28;;;;;;;53.63;30.83;;;;;;;1.12;68.54;100938.01;1687785;83;21039;-79
2022/03/03 08:31:05;;;;;;;51.37;28.13;;;;;;;1.24;68.35;100934.67;1693807;84;21366;-78
2022/03/03 08:33:51;;;;;;;56.17;28.30;;;;;;;1.33;68.10;100931.77;1693777;84;21031;-90
2022/03/03 08:36:48;;;;;;;51.00;28.63;;;;;;;1.41;67.72;100930.52;1693861;83;22174;-78
2022/03/03 08:39:21;;;;;;;55.10;28.00;;;;;;;1.54;67.70;100926.34;1692012;84;21079;-79
2022/03/03 08:41:47;;;;;;;49.00;28.93;;;;;;;1.70;67.62;100919.15;1693502;84;21028;-78
2022/03/03 08:44:18;;;;;;;50.97;28.67;;;;;;;1.83;67.23;100927.88;1692318;83;21076;-78
2022/03/03 08:46:46;;;;;;;54.00;30.55;;;;;;;1.93;66.99;100928.78;1684363;84;21576;-78
2022/03/03 08:49:14;;;;;;;49.97;28.87;;;;;;;2.05;66.72;100924.11;1675542;84;21946;-78
2022/03/03 08:51:41;;;;;;;53.27;29.90;;;;;;;2.14;66.67;100922.89;1676006;84;20917;-76
2022/03/03 08:54:08;;;;;;;60.40;30.77;;;;;;;2.30;66.64;100919.94;1695178;84;21085;-79
2022/03/03 08:56:36;;;;;;;55.37;31.00;;;;;;;2.44;66.36;100923.48;1684306;84;21048;-78
2022/03/03 08:59:05;;;;;;;61.27;32.43;;;;;;;2.57;66.01;100920.50;1683005;84;21009;-79
2022/03/03 09:01:32;;;;;;;68.77;34.50;;;;;;;2.71;66.04;100911.06;1656511;86;21213;-78
2022/03/03 09:04:01;;;;;;;60.60;32.67;;;;;;;2.84;65.85;100918.01;1659688;86;21099;-88
2022/03/03 09:06:28;;;;;;;56.43;32.43;;;;;;;3.00;65.67;100914.18;1660316;86;21052;-78
2022/03/03 09:08:55;;;;;;;55.77;31.00;;;;;;;3.13;65.47;100916.80;1660469;86;21515;-80
2022/03/03 09:11:22;;;;;;;60.20;32.97;;;;;;;3.23;65.01;100912.92;1660691;86;21099;-78
2022/03/03 09:13:49;;;;;;;125.30;42.93;;;;;;;3.31;65.00;100915.95;1684394;84;21090;-78
2022/03/03 09:16:18;;;;;;;56.90;32.23;;;;;;;3.43;64.72;100912.48;1683915;84;21581;-78
2022/03/03 09:18:46;;;;;;;54.30;32.77;;;;;;;3.53;64.48;100903.00;1682932;84;21467;-78
2022/03/03 09:21:13;;;;;;;59.87;32.67;;;;;;;3.68;64.50;100912.05;1684343;83;21052;-83
2022/03/03 09:23:41;;;;;;;55.03;32.93;;;;;;;3.84;64.29;100908.16;1681136;84;21548;-80
2022/03/03 09:26:08;;;;;;;63.83;34.37;;;;;;;3.99;64.07;100911.61;1687330;84;21141;-80
2022/03/03 09:28:35;;;;;;;59.20;33.93;;;;;;;4.13;63.87;100910.28;1689760;84;21032;-79
2022/03/03 09:31:03;;;;;;;57.27;33.73;;;;;;;4.29;63.65;100916.27;1701116;84;21029;-79
2022/03/03 09:33:31;;;;;;;56.30;32.57;;;;;;;4.42;63.34;100910.17;1703037;84;21033;-78
2022/03/03 09:35:58;;;;;;;53.50;32.37;;;;;;;4.53;63.09;100906.24;1703391;84;21032;-79
2022/03/03 09:38:25;;;;;;;57.93;33.37;;;;;;;4.69;62.92;100904.45;1703237;84;21091;-79
2022/03/03 09:40:52;;;;;;;56.10;33.37;;;;;;;4.82;62.53;100908.72;1703309;84;21028;-79
2022/03/03 09:43:19;;;;;;;57.80;33.97;;;;;;;4.94;62.23;100901.73;1703244;84;21004;-79
2022/03/03 09:45:46;;;;;;;53.97;31.87;;;;;;;5.06;62.15;100902.50;1703199;84;21489;-80
2022/03/03 09:48:13;;;;;;;50.47;31.83;;;;;;;5.29;62.26;100902.36;1703201;84;21013;-79
2022/03/03 09:50:42;;;;;;;49.50;30.73;;;;;;;5.46;61.71;100901.34;1703057;83;21139;-79
2022/03/03 09:53:15;;;;;;;54.00;32.20;;;;;;;5.64;61.49;100901.64;1703017;83;21283;-79
2022/03/03 09:55:44;;;;;;;51.63;30.60;;;;;;;5.79;61.39;100903.67;1703080;84;21005;-79
2022/03/03 09:58:12;;;;;;;46.13;29.52;;;;;;;5.92;60.68;100899.20;1703423;83;21303;-79
2022/03/03 10:00:41;;;;;;;50.50;31.57;;;;;;;6.01;60.19;100904.36;1703099;84;21028;-79
2022/03/03 10:03:14;;;;;;;48.03;31.13;;;;;;;6.13;60.29;100899.46;1703446;84;21747;-79
2022/03/03 10:06:13;;;;;;;46.10;28.23;;;;;;;6.34;60.19;100902.25;1703037;84;21577;-79
2022/03/03 10:08:43;;;;;;;43.73;28.23;;;;;;;6.59;59.78;100894.99;1703232;83;21036;-79
2022/03/03 10:11:11;;;;;;;41.13;25.60;;;;;;;6.86;59.55;100903.34;1703041;84;21074;-79
2022/03/03 10:13:51;;;;;;;42.63;26.90;;;;;;;7.04;58.83;100896.58;1703488;83;21017;-76
2022/03/03 10:16:25;;;;;;;37.83;25.92;;;;;;;7.17;58.51;100896.38;1703213;84;27083;-77
2022/03/03 10:19:03;;;;;;;39.63;26.60;;;;;;;7.32;58.29;100898.77;1703269;83;21491;-77
2022/03/03 10:21:37;;;;;;;41.33;25.80;;;;;;;7.50;57.72;100895.84;1703179;83;21036;-77
2022/03/03 10:24:19;;;;;;;37.57;25.00;;;;;;;7.66;57.40;100888.63;1703407;83;20995;-77
2022/03/03 10:26:47;;;;;;;33.03;22.57;;;;;;;7.85;57.20;100889.62;1703130;83;21083;-78
2022/03/03 10:29:20;;;;;;;34.60;24.73;;;;;;;8.09;56.71;100889.59;1703425;83;21938;-78
2022/03/03 10:31:53;;;;;;;34.67;24.47;;;;;;;8.21;56.39;100893.30;1702578;84;21024;-78
2022/03/03 10:34:32;;;;;;;33.23;23.40;;;;;;;8.41;56.12;100889.02;1698376;84;21013;-78
2022/03/03 10:37:10;;;;;;;31.40;23.23;;;;;;;8.57;55.65;100889.56;1702033;83;20993;-78
2022/03/03 10:39:48;;;;;;;29.97;22.13;;;;;;;8.77;55.45;100887.83;1708373;83;21493;-78
2022/03/03 10:42:19;;;;;;;36.10;24.80;;;;;;;9.03;55.24;100882.00;1715134;83;21978;-78
2022/03/03 10:44:53;;;;;;;32.77;23.03;;;;;;;9.30;54.92;100872.66;1715328;83;21044;-78
2022/03/03 10:47:24;;;;;;;37.93;25.80;;;;;;;9.45;54.22;100875.34;1713187;83;21056;-78
2022/03/03 10:49:55;;;;;;;35.27;25.47;;;;;;;9.54;53.91;100875.13;1715365;83;21508;-78
2022/03/03 10:52:26;;;;;;;33.63;23.83;;;;;;;9.58;53.18;100877.61;1704356;83;21015;-79
2022/03/03 10:55:13;;;;;;;28.90;22.97;;;;;;;9.62;53.01;100862.70;1686335;85;21161;-79
2022/03/03 10:57:57;;;;;;;30.57;22.67;;;;;;;9.68;52.77;100860.38;1686555;85;21032;-78
2022/03/03 11:00:30;;;;;;;32.03;24.53;;;;;;;9.83;52.43;100861.27;1686543;85;21075;-77
2022/03/03 11:03:01;;;;;;;32.33;23.90;;;;;;;9.85;52.09;100862.09;1686276;85;21008;-78
2022/03/03 11:05:33;;;;;;;30.35;22.35;;;;;;;9.94;51.95;100867.08;1686730;85;21017;-77
2022/03/03 11:08:01;;;;;;;30.57;23.37;;;;;;;10.09;51.83;100857.08;1686508;85;21122;-77
2022/03/03 11:10:31;;;;;;;32.88;24.23;;;;;;;10.25;51.58;100859.68;1686287;85;20945;-78
2022/03/03 11:12:59;;;;;;;30.70;23.57;;;;;;;10.32;51.17;100861.73;1686738;85;21083;-78
2022/03/03 11:15:28;;;;;;;41.60;29.45;;;;;;;10.36;50.82;100855.48;1686638;85;21497;-78
2022/03/03 11:17:56;;;;;;;64.20;39.18;;;;;;;10.42;50.63;100860.11;1686494;85;21043;-77
2022/03/03 11:20:24;;;;;;;53.40;34.10;;;;;;;10.54;50.27;100845.78;1686602;85;21108;-77